Scf Baltica — A8IA5 — position and weather

sailwx.info

Track history (hours):
 
Tides and Currents Weather Stations Pressure Air Temp Water Temp Dewpoint Dewpoint Depression Visibility Wind Speed Wind Dir Waves Ship Positions

Scf Baltica

Last reported at 2014-Oct-31 09:33 UTC. Time now 2014-Oct-31 11:36 UTC.
Position N 54°41' E 010°47'.

Length 250 m; draft 14.8 m.

Type: Ship. MMSI: 636012813.

Date/timePositionNaut miles runAvg speedWind from/ knotsBaromVisibWave heightAir tempDewpointWater temp
2014-Oct-31 09:33N 54°41' E 010°47'2611.3
2014-Oct-31 07:14N 54°31' E 011°28'811.4
2014-Oct-31 06:33N 54°28' E 011°40'1111.0
2014-Oct-31 05:33N 54°26' E 011°59'9 8.4
2014-Oct-31 04:30N 54°29' E 012°13'9 9.2
2014-Oct-31 03:33N 54°37' E 012°19'9 7.8
2014-Oct-31 02:24N 54°42' E 012°32'5610.5
2014-Oct-30 21:04N 55°03' E 014°02'1011.5
2014-Oct-30 20:12N 55°10' E 014°14'710.3
2014-Oct-30 19:32N 55°16' E 014°21'1211.9
2014-Oct-30 18:33N 55°25' E 014°34'1211.7
2014-Oct-30 17:33N 55°31' E 014°51'1211.9
2014-Oct-30 16:32N 55°37' E 015°10'7111.9
2014-Oct-30 10:33N 55°54' E 017°13'29710.6
2014-Oct-29 06:33N 59°37' E 023°19'1110.4
2014-Oct-29 05:33N 59°40' E 023°39'1110.7
2014-Oct-29 04:32N 59°43' E 023°60'1110.7
2014-Oct-29 03:31N 59°46' E 024°20'1010.9
2014-Oct-29 02:33N 59°48' E 024°41'1210.7
2014-Oct-29 01:27N 59°51' E 025°04'3310.8
2014-Oct-28 22:26N 59°58' E 026°07'1110.9
2014-Oct-28 21:26N 60°01' E 026°29'1010.8
2014-Oct-28 20:33N 60°00' E 026°48'  
2014-Oct-24 04:14N 60°02' E 027°18'810.0
2014-Oct-24 03:26N 59°58' E 027°04'8 9.4
2014-Oct-24 02:34N 59°59' E 026°48'9 9.4
2014-Oct-24 01:34N 59°58' E 026°29'48 9.5
2014-Oct-23 20:32N 59°47' E 024°57'10 9.0
2014-Oct-23 19:25N 59°45' E 024°37'8 9.1
2014-Oct-23 18:34N 59°43' E 024°22'19 9.3
2014-Oct-23 16:33N 59°37' E 023°47'10 9.7
2014-Oct-23 15:34N 59°34' E 023°29'  
Track history (hours):
 
Tides and Currents Weather Stations Pressure Air Temp Water Temp Dewpoint Dewpoint Depression Visibility Wind Speed Wind Dir Waves Ship Positions

Scf Baltica

Last reported at 2014-Oct-31 09:33 UTC. Time now 2014-Oct-31 11:36 UTC.
Position N 54°41' E 010°47'.

Length 250 m; draft 14.8 m.

Type: Ship. MMSI: 636012813.

Date/timePositionNaut miles runAvg speedWind from/ knotsBaromVisibWave heightAir tempDewpointWater temp
2014-Oct-31 09:33N 54°41' E 010°47'2611.3
2014-Oct-31 07:14N 54°31' E 011°28'811.4
2014-Oct-31 06:33N 54°28' E 011°40'1111.0
2014-Oct-31 05:33N 54°26' E 011°59'9 8.4
2014-Oct-31 04:30N 54°29' E 012°13'9 9.2
2014-Oct-31 03:33N 54°37' E 012°19'9 7.8
2014-Oct-31 02:24N 54°42' E 012°32'5610.5
2014-Oct-30 21:04N 55°03' E 014°02'1011.5
2014-Oct-30 20:12N 55°10' E 014°14'710.3
2014-Oct-30 19:32N 55°16' E 014°21'1211.9
2014-Oct-30 18:33N 55°25' E 014°34'1211.7
2014-Oct-30 17:33N 55°31' E 014°51'1211.9
2014-Oct-30 16:32N 55°37' E 015°10'7111.9
2014-Oct-30 10:33N 55°54' E 017°13'29710.6
2014-Oct-29 06:33N 59°37' E 023°19'1110.4
2014-Oct-29 05:33N 59°40' E 023°39'1110.7
2014-Oct-29 04:32N 59°43' E 023°60'1110.7
2014-Oct-29 03:31N 59°46' E 024°20'1010.9
2014-Oct-29 02:33N 59°48' E 024°41'1210.7
2014-Oct-29 01:27N 59°51' E 025°04'3310.8
2014-Oct-28 22:26N 59°58' E 026°07'1110.9
2014-Oct-28 21:26N 60°01' E 026°29'1010.8
2014-Oct-28 20:33N 60°00' E 026°48'  
2014-Oct-24 04:14N 60°02' E 027°18'810.0
2014-Oct-24 03:26N 59°58' E 027°04'8 9.4
2014-Oct-24 02:34N 59°59' E 026°48'9 9.4
2014-Oct-24 01:34N 59°58' E 026°29'48 9.5
2014-Oct-23 20:32N 59°47' E 024°57'10 9.0
2014-Oct-23 19:25N 59°45' E 024°37'8 9.1
2014-Oct-23 18:34N 59°43' E 024°22'19 9.3
2014-Oct-23 16:33N 59°37' E 023°47'10 9.7
2014-Oct-23 15:34N 59°34' E 023°29'  

Dump ship's entire track history